Time;durP1;ratioP1;P1;durP2;ratioP2;P2;SDS_P1;SDS_P2;PMS_P1;PMS_P2;Temp;Humidity;BMP_temperature;BMP_pressure;BME280_temperature;BME280_humidity;BME280_pressure;Samples;Min_cycle;Max_cycle;Signal;HPM_P1;HPM_P2
2021/12/20 00:00:38;;;;;;;4.13;3.30;;;;;;;6.56;96.53;103027.81;4998602;28;20032;-81
2021/12/20 00:03:03;;;;;;;12.63;3.67;;;;;;;6.56;96.51;103048.66;5022774;28;20050;-81
2021/12/20 00:05:29;;;;;;;8.63;3.38;;;;;;;6.53;96.40;103032.97;5000586;28;20048;-81
2021/12/20 00:07:54;;;;;;;8.15;3.33;;;;;;;6.52;96.33;103024.31;5023775;28;20042;-81
2021/12/20 00:10:20;;;;;;;6.90;3.30;;;;;;;6.52;96.43;103024.31;5001882;28;20025;-81
2021/12/20 00:12:45;;;;;;;5.97;3.53;;;;;;;6.54;96.36;103029.53;5020616;28;20064;-81
2021/12/20 00:15:11;;;;;;;6.55;3.28;;;;;;;6.55;96.39;103020.88;5021326;28;20046;-81
2021/12/20 00:17:36;;;;;;;5.63;2.95;;;;;;;6.54;96.88;103012.19;4993995;28;20026;-81
2021/12/20 00:20:03;;;;;;;6.82;2.50;;;;;;;6.54;96.43;103017.38;5023761;28;20495;-81
2021/12/20 00:22:29;;;;;;;5.60;2.60;;;;;;;6.52;96.17;103015.63;5023089;28;20050;-81
2021/12/20 00:24:54;;;;;;;5.60;2.30;;;;;;;6.50;95.98;103018.22;5007725;28;20047;-81
2021/12/20 00:27:20;;;;;;;8.68;1.75;;;;;;;6.43;95.13;103021.59;5040491;28;20034;-81
2021/12/20 00:29:49;;;;;;;9.38;1.98;;;;;;;6.39;93.75;103012.03;5013756;28;20064;-81
2021/12/20 00:32:15;;;;;;;8.60;1.67;;;;;;;6.37;92.54;103015.44;5020396;28;20446;-81
2021/12/20 00:34:41;;;;;;;12.02;2.10;;;;;;;6.37;92.00;103018.03;5006317;28;20017;-81
2021/12/20 00:40:19;;;;;;;7.82;2.30;;;;;;;6.34;91.66;103016.28;5008444;28;20034;-81
2021/12/20 00:42:37;;;;;;;14.60;1.70;;;;;;;6.30;90.64;103001.50;5010674;28;20056;-81
2021/12/20 00:45:03;;;;;;;12.90;1.85;;;;;;;6.28;90.48;103013.63;5017178;28;20326;-81
2021/12/20 00:47:28;;;;;;;9.57;2.42;;;;;;;6.27;90.49;102999.72;5004217;28;20042;-81
2021/12/20 00:49:54;;;;;;;13.40;2.00;;;;;;;6.26;90.30;103008.41;5005883;28;20117;-81
2021/12/20 00:52:20;;;;;;;13.93;2.13;;;;;;;6.25;90.12;103014.44;5004581;28;20092;-81
2021/12/20 00:54:45;;;;;;;10.43;2.10;;;;;;;6.26;90.20;103013.59;4974038;28;20053;-81
2021/12/20 00:57:11;;;;;;;13.50;2.15;;;;;;;6.22;89.10;103004.03;5019033;28;20018;-81
2021/12/20 00:59:36;;;;;;;9.40;2.20;;;;;;;6.21;88.71;102997.06;5006416;28;20045;-81
2021/12/20 01:02:02;;;;;;;21.52;2.97;;;;;;;6.20;88.62;102999.63;5007321;28;20033;-81
2021/12/20 01:04:27;;;;;;;13.63;2.13;;;;;;;6.20;89.46;103002.25;5006639;28;20030;-81
2021/12/20 01:06:53;;;;;;;9.50;1.55;;;;;;;6.20;89.23;103002.25;5024002;28;20114;-81
2021/12/20 01:09:18;;;;;;;17.10;2.30;;;;;;;6.18;88.89;103004.81;5020358;28;20081;-81
2021/12/20 01:11:49;;;;;;;14.75;2.45;;;;;;;6.16;88.07;103006.53;5023801;28;20034;-81
2021/12/20 01:14:22;;;;;;;13.15;2.88;;;;;;;6.15;87.71;103000.47;5001917;28;20090;-80
2021/12/20 01:16:47;;;;;;;14.93;2.03;;;;;;;6.13;86.26;102996.97;5006852;28;20285;-80
2021/12/20 01:19:13;;;;;;;15.15;2.67;;;;;;;6.14;87.03;102998.69;5023381;28;20038;-80
2021/12/20 01:21:38;;;;;;;13.90;2.53;;;;;;;6.11;85.84;102993.47;5007910;28;20042;-81
2021/12/20 01:24:04;;;;;;;16.02;2.85;;;;;;;6.12;86.23;102990.00;5014875;28;20214;-81
2021/12/20 01:26:29;;;;;;;18.83;2.83;;;;;;;6.10;85.05;102990.84;5022677;28;20061;-80
2021/12/20 01:28:55;;;;;;;11.65;2.10;;;;;;;6.09;84.99;102995.19;5011195;28;20225;-80
2021/12/20 01:31:20;;;;;;;14.00;2.33;;;;;;;6.08;85.14;102996.03;5003344;28;20042;-80
2021/12/20 01:33:46;;;;;;;15.38;2.72;;;;;;;6.07;85.26;102991.69;4995164;28;20032;-80
2021/12/20 01:36:11;;;;;;;16.52;2.38;;;;;;;6.07;84.56;102990.81;4995986;28;20046;-80
2021/12/20 01:38:37;;;;;;;20.80;2.75;;;;;;;6.06;84.06;102989.94;5004976;28;20046;-80
2021/12/20 01:41:03;;;;;;;17.08;2.58;;;;;;;6.09;85.33;102994.31;5012184;28;20057;-80
2021/12/20 01:43:29;;;;;;;21.15;2.30;;;;;;;6.08;85.19;102987.38;5022434;28;20225;-80
2021/12/20 01:45:54;;;;;;;13.77;2.80;;;;;;;6.07;84.34;102985.59;5004537;28;20053;-80
2021/12/20 01:48:21;;;;;;;18.08;2.78;;;;;;;6.06;84.39;102994.28;5019083;28;20222;-80
2021/12/20 01:51:02;;;;;;;17.20;2.63;;;;;;;6.08;85.60;102998.63;5009994;28;20033;-80
2021/12/20 01:53:27;;;;;;;15.88;3.00;;;;;;;6.09;86.16;102999.50;4998937;28;20034;-80
2021/12/20 01:55:53;;;;;;;21.92;3.17;;;;;;;6.08;85.76;102993.44;5009138;28;20050;-80
2021/12/20 01:58:19;;;;;;;9.50;2.35;;;;;;;6.08;85.68;102995.19;5011426;28;20038;-80
2021/12/20 02:03:29;;;;;;;18.23;2.33;;;;;;;6.07;85.11;103002.06;5011436;28;20049;-80
2021/12/20 02:05:57;;;;;;;15.93;2.38;;;;;;;6.09;86.08;103000.41;5012736;28;20102;-80
2021/12/20 02:08:25;;;;;;;16.35;3.22;;;;;;;6.09;86.64;103004.69;5007224;28;20033;-80
2021/12/20 02:10:56;;;;;;;18.98;2.60;;;;;;;6.08;86.77;102996.03;5015646;28;20038;-80
2021/12/20 02:13:21;;;;;;;20.10;2.60;;;;;;;6.10;86.93;102986.53;4977759;28;20040;-80
2021/12/20 02:15:47;;;;;;;16.00;2.47;;;;;;;6.09;86.46;102974.38;5008955;28;20061;-80
2021/12/20 02:18:12;;;;;;;18.40;2.53;;;;;;;6.08;85.70;102985.63;5004471;28;20030;-80
2021/12/20 02:20:38;;;;;;;19.50;2.90;;;;;;;6.07;85.01;102986.47;5002771;28;20034;-80
2021/12/20 02:23:04;;;;;;;24.20;2.50;;;;;;;6.05;84.37;102982.13;5022016;28;20029;-80
2021/12/20 02:25:30;;;;;;;22.42;2.60;;;;;;;6.04;84.05;102981.25;5005788;28;20032;-80
2021/12/20 02:27:55;;;;;;;16.67;2.90;;;;;;;6.01;83.77;102978.59;4989601;28;20034;-80
2021/12/20 02:38:28;;;;;;;10.20;2.13;;;;;;;6.00;84.29;102974.25;5002552;28;20125;-80
2021/12/20 02:41:06;;;;;;;15.00;2.58;;;;;;;6.00;84.37;102976.84;4970289;28;20038;-80
2021/12/20 02:43:36;;;;;;;19.17;2.85;;;;;;;6.00;83.65;102974.25;5004843;28;20117;-80
2021/12/20 02:46:04;;;;;;;15.02;2.33;;;;;;;6.02;84.54;102971.66;4989667;28;20029;-80
2021/12/20 02:48:29;;;;;;;11.40;3.07;;;;;;;6.02;85.56;102975.16;5005852;28;20303;-80
2021/12/20 02:50:55;;;;;;;23.90;3.35;;;;;;;6.02;85.06;102974.25;5037580;28;20029;-80
2021/12/20 02:53:21;;;;;;;21.65;3.05;;;;;;;6.03;85.57;102963.03;5005757;28;20093;-80
2021/12/20 02:55:46;;;;;;;25.08;2.80;;;;;;;6.03;85.46;102963.03;5005997;28;20327;-80
2021/12/20 02:58:12;;;;;;;26.30;3.10;;;;;;;6.02;84.69;102956.06;5022461;28;20038;-80
2021/12/20 03:00:37;;;;;;;19.17;1.98;;;;;;;6.02;85.36;102951.75;5020639;28;20042;-80
2021/12/20 03:03:03;;;;;;;8.07;2.10;;;;;;;5.99;83.99;102951.69;5020477;28;20033;-80
2021/12/20 03:05:28;;;;;;;19.15;2.35;;;;;;;5.99;83.77;102956.91;5005005;28;20037;-80
2021/12/20 03:07:54;;;;;;;17.05;3.03;;;;;;;5.99;83.86;102958.66;5001675;28;20037;-80
2021/12/20 03:10:21;;;;;;;17.92;2.20;;;;;;;5.99;83.96;102966.44;5005764;28;20064;-80
2021/12/20 03:12:48;;;;;;;25.98;2.67;;;;;;;5.98;84.39;102959.47;4994446;28;20464;-80
2021/12/20 03:15:19;;;;;;;13.38;2.75;;;;;;;6.00;85.01;102969.03;4986274;28;20030;-81
2021/12/20 03:17:44;;;;;;;20.30;2.85;;;;;;;6.00;84.73;102966.44;4986761;28;20375;-80
2021/12/20 03:20:10;;;;;;;20.88;2.97;;;;;;;5.98;83.72;102969.88;4986395;28;20034;-80
2021/12/20 03:22:36;;;;;;;24.52;3.90;;;;;;;5.94;83.86;102969.81;5011322;28;20044;-80
2021/12/20 03:25:01;;;;;;;22.85;2.90;;;;;;;5.94;83.69;102963.75;4995647;28;20041;-80
2021/12/20 03:27:27;;;;;;;14.35;2.40;;;;;;;5.94;84.71;102969.81;4986343;28;20030;-80
2021/12/20 03:29:52;;;;;;;17.77;2.72;;;;;;;5.94;84.32;102963.75;5017175;28;20371;-80
2021/12/20 03:32:18;;;;;;;22.48;2.75;;;;;;;5.92;84.54;102958.50;5021380;28;20045;-80
2021/12/20 03:34:43;;;;;;;18.73;2.45;;;;;;;5.92;84.67;102968.06;4988957;28;20029;-80
2021/12/20 03:37:09;;;;;;;14.45;2.03;;;;;;;5.91;84.12;102964.59;5001990;28;20061;-80
2021/12/20 03:39:34;;;;;;;15.13;2.50;;;;;;;5.90;84.44;102965.44;4985150;28;20058;-80
2021/12/20 03:42:00;;;;;;;17.33;2.17;;;;;;;5.87;83.73;102962.78;4978979;28;20034;-80
2021/12/20 03:44:26;;;;;;;9.70;2.42;;;;;;;5.88;83.81;102966.28;5005611;28;20042;-80
2021/12/20 03:46:51;;;;;;;17.60;2.20;;;;;;;5.88;83.20;102950.66;5021591;28;20344;-80
2021/12/20 03:49:16;;;;;;;20.75;2.78;;;;;;;5.87;83.38;102957.56;5002180;28;20264;-80
2021/12/20 03:51:42;;;;;;;15.00;2.88;;;;;;;5.86;83.34;102961.03;5015292;28;20038;-80
2021/12/20 03:54:08;;;;;;;22.45;3.20;;;;;;;5.86;83.31;102960.19;5021786;28;20046;-80
2021/12/20 03:56:33;;;;;;;15.07;2.03;;;;;;;5.86;83.69;102965.38;5007734;28;20038;-80
2021/12/20 03:58:59;;;;;;;9.50;2.42;;;;;;;5.85;83.58;102954.09;4999392;28;20052;-82
2021/12/20 04:01:25;;;;;;;18.48;2.65;;;;;;;5.90;85.38;102954.16;5022007;28;20241;-82
2021/12/20 04:03:51;;;;;;;15.05;2.28;;;;;;;5.89;84.14;102948.06;5017953;28;20038;-82
2021/12/20 04:06:16;;;;;;;19.30;2.75;;;;;;;5.89;83.52;102953.25;5002400;28;20053;-82
2021/12/20 04:08:42;;;;;;;14.00;2.35;;;;;;;5.92;84.44;102960.25;5013230;28;20037;-82
2021/12/20 04:11:07;;;;;;;26.75;2.80;;;;;;;5.94;85.65;102951.59;5021915;28;20037;-81
2021/12/20 04:13:33;;;;;;;18.85;2.42;;;;;;;5.94;84.77;102953.34;5015764;28;20084;-82
2021/12/20 04:15:59;;;;;;;22.55;2.05;;;;;;;5.93;85.11;102957.66;5021787;28;20041;-82
2021/12/20 04:18:24;;;;;;;17.80;2.15;;;;;;;5.91;84.12;102956.78;5014072;28;20045;-82
2021/12/20 04:20:50;;;;;;;14.18;2.60;;;;;;;5.93;84.49;102957.66;5002013;28;20046;-82
2021/12/20 04:23:15;;;;;;;11.40;2.88;;;;;;;5.92;84.71;102950.72;4993231;28;20060;-82
2021/12/20 04:25:41;;;;;;;12.85;2.28;;;;;;;5.95;85.64;102949.91;5002922;28;20042;-82
2021/12/20 04:28:06;;;;;;;13.25;2.45;;;;;;;5.99;86.76;102961.25;5000909;28;20353;-82
2021/12/20 04:30:32;;;;;;;12.43;2.45;;;;;;;5.96;85.64;102957.72;5004975;28;20026;-82
2021/12/20 04:32:58;;;;;;;10.88;2.10;;;;;;;5.96;84.52;102967.25;5018903;28;20054;-82
2021/12/20 04:35:23;;;;;;;17.73;2.28;;;;;;;5.98;86.28;102959.47;5038059;28;20371;-82
2021/12/20 04:37:50;;;;;;;15.50;2.60;;;;;;;5.95;84.61;102958.59;5020587;28;20061;-82
2021/12/20 04:40:19;;;;;;;18.90;2.40;;;;;;;5.95;85.42;102957.69;4985749;28;20046;-82
2021/12/20 04:42:46;;;;;;;16.10;2.53;;;;;;;5.95;84.93;102953.38;5014478;28;20137;-82
2021/12/20 04:45:11;;;;;;;18.15;2.22;;;;;;;5.94;84.74;102962.00;5018919;28;20058;-82
2021/12/20 04:47:37;;;;;;;20.75;2.60;;;;;;;5.94;84.73;102951.59;5001660;28;20057;-82
2021/12/20 04:50:03;;;;;;;15.50;2.25;;;;;;;5.94;85.45;102951.59;5018462;28;20030;-82
2021/12/20 04:52:29;;;;;;;18.85;2.63;;;;;;;5.93;84.72;102962.88;4993846;28;20105;-82
2021/12/20 04:54:54;;;;;;;12.40;2.47;;;;;;;5.94;85.03;102964.59;4984182;28;20363;-82
2021/12/20 04:57:20;;;;;;;12.65;2.25;;;;;;;5.93;83.80;102956.78;4995745;28;20041;-82
2021/12/20 04:59:45;;;;;;;17.10;3.05;;;;;;;5.92;83.31;102957.66;5015395;28;20217;-82
2021/12/20 05:02:10;;;;;;;13.13;2.42;;;;;;;5.89;82.03;102952.41;5019844;28;20041;-82
2021/12/20 05:04:36;;;;;;;15.23;2.72;;;;;;;5.87;82.12;102954.97;5036712;28;20025;-82
2021/12/20 05:07:03;;;;;;;13.82;2.22;;;;;;;5.88;82.80;102953.28;5004108;28;20053;-82
2021/12/20 05:09:35;;;;;;;16.70;2.20;;;;;;;5.83;80.99;102950.59;5014574;28;20232;-82
2021/12/20 05:12:10;;;;;;;16.58;2.83;;;;;;;5.84;80.54;102954.06;4988336;28;20045;-81
2021/12/20 05:14:36;;;;;;;16.75;2.35;;;;;;;5.84;81.40;102954.97;5010991;28;20049;-82
2021/12/20 05:17:01;;;;;;;15.75;2.67;;;;;;;5.83;80.93;102952.34;4984677;28;20101;-81
2021/12/20 05:19:27;;;;;;;14.43;2.22;;;;;;;5.83;80.53;102957.53;4986049;28;20057;-81
2021/12/20 05:21:52;;;;;;;10.98;2.17;;;;;;;5.83;80.65;102965.34;5005571;28;20099;-81
2021/12/20 05:24:18;;;;;;;16.00;2.13;;;;;;;5.85;81.89;102964.50;5014349;28;20040;-81
2021/12/20 05:26:43;;;;;;;17.35;2.90;;;;;;;5.85;81.84;102959.28;4991616;28;20048;-81
2021/12/20 05:29:08;;;;;;;3.45;1.38;;;;;;;5.88;82.73;102966.28;5033309;28;20018;-81
2021/12/20 05:31:34;;;;;;;15.63;2.15;;;;;;;5.89;82.62;102973.19;5001803;28;20048;-81
2021/12/20 05:34:00;;;;;;;15.38;2.17;;;;;;;5.87;82.16;102970.56;5003490;28;20038;-82
2021/12/20 05:36:26;;;;;;;11.30;2.25;;;;;;;5.86;81.40;102965.38;5002004;28;20132;-82
2021/12/20 05:38:51;;;;;;;14.20;2.47;;;;;;;5.85;81.93;102972.28;5000275;28;20046;-82
2021/12/20 05:41:17;;;;;;;9.23;1.98;;;;;;;5.81;81.20;102962.72;4984438;28;20030;-82
2021/12/20 05:43:42;;;;;;;22.60;2.42;;;;;;;5.81;81.23;102975.72;5005950;28;20432;-82
2021/12/20 05:46:08;;;;;;;18.95;2.50;;;;;;;5.79;81.32;102969.63;5003174;28;20029;-82
2021/12/20 05:48:33;;;;;;;20.98;2.60;;;;;;;5.79;81.84;102966.16;5020773;28;20045;-82
2021/12/20 05:50:58;;;;;;;20.88;2.85;;;;;;;5.79;81.56;102974.81;5004246;28;20030;-82
2021/12/20 05:53:24;;;;;;;19.08;3.30;;;;;;;5.77;82.33;102972.19;5000662;28;20068;-82
2021/12/20 05:55:49;;;;;;;20.40;3.08;;;;;;;5.79;82.70;102969.63;5001264;28;20034;-82
2021/12/20 05:58:15;;;;;;;12.80;1.90;;;;;;;5.79;82.56;102981.75;5000253;28;20045;-82
2021/12/20 06:00:40;;;;;;;10.02;2.25;;;;;;;5.78;82.67;102983.47;4993288;28;20064;-82
2021/12/20 06:03:05;;;;;;;15.95;3.15;;;;;;;5.79;82.47;102979.16;5020357;28;20072;-82
2021/12/20 06:05:31;;;;;;;18.98;3.05;;;;;;;5.78;82.84;102978.25;5019125;28;20060;-82
2021/12/20 06:07:57;;;;;;;18.30;2.78;;;;;;;5.78;82.79;102978.25;5021125;28;20333;-82
2021/12/20 06:10:23;;;;;;;17.27;3.00;;;;;;;5.76;81.90;102979.97;5019606;28;20036;-82
2021/12/20 06:12:48;;;;;;;12.18;1.95;;;;;;;5.77;82.96;102979.13;5019228;28;20288;-82
2021/12/20 06:15:14;;;;;;;12.23;1.98;;;;;;;5.77;81.98;102984.34;5012368;28;20029;-82
2021/12/20 06:17:39;;;;;;;12.85;2.10;;;;;;;5.79;82.81;102989.56;5002988;28;20029;-82
2021/12/20 06:20:07;;;;;;;15.48;1.90;;;;;;;5.78;82.47;102980.88;5014519;28;20053;-82
2021/12/20 06:22:32;;;;;;;18.70;2.28;;;;;;;5.77;82.05;102981.72;4999638;28;20038;-82
2021/12/20 06:24:58;;;;;;;14.23;1.90;;;;;;;5.75;81.02;102979.09;4990767;28;20146;-82
2021/12/20 06:27:23;;;;;;;12.32;2.00;;;;;;;5.74;80.08;102979.09;5000982;28;20207;-82
2021/12/20 06:29:49;;;;;;;11.38;1.60;;;;;;;5.74;79.86;102979.94;5000580;28;20042;-82
2021/12/20 06:32:15;;;;;;;10.75;1.58;;;;;;;5.76;80.29;102992.97;5019314;28;20037;-82
2021/12/20 06:34:40;;;;;;;13.10;2.10;;;;;;;5.74;79.91;102979.94;5013364;28;20093;-82
2021/12/20 06:37:05;;;;;;;16.92;2.30;;;;;;;5.73;80.08;102980.81;5018832;28;20052;-82
2021/12/20 06:39:31;;;;;;;13.23;2.10;;;;;;;5.79;81.79;102984.34;5018047;28;20132;-82
2021/12/20 06:41:57;;;;;;;12.98;2.05;;;;;;;5.79;82.18;102977.41;5001251;28;20050;-82
2021/12/20 06:44:22;;;;;;;9.95;1.95;;;;;;;5.79;81.46;102984.34;5006020;28;20038;-82
2021/12/20 06:46:47;;;;;;;7.47;1.85;;;;;;;5.77;81.38;102985.19;4985640;28;20084;-82
2021/12/20 06:49:13;;;;;;;14.25;2.13;;;;;;;5.76;81.69;102992.97;4985126;28;20173;-82
2021/12/20 06:51:43;;;;;;;12.25;2.42;;;;;;;5.75;81.40;102996.44;5004091;28;20057;-82
2021/12/20 06:54:09;;;;;;;10.73;1.92;;;;;;;5.73;81.18;102988.63;5002405;28;20056;-82
2021/12/20 06:56:34;;;;;;;16.83;2.38;;;;;;;5.74;81.27;102992.09;5004743;28;20038;-82
2021/12/20 06:59:00;;;;;;;10.98;2.25;;;;;;;5.72;80.22;102986.00;5004474;28;20088;-82
2021/12/20 07:01:26;;;;;;;11.15;1.73;;;;;;;5.72;79.98;102986.00;4982748;28;20034;-82
2021/12/20 07:03:51;;;;;;;9.35;2.20;;;;;;;5.73;80.22;102985.13;5011844;28;20535;-82
2021/12/20 07:06:16;;;;;;;11.57;1.65;;;;;;;5.71;80.18;102994.63;5011135;28;20430;-82
2021/12/20 07:08:42;;;;;;;7.15;1.40;;;;;;;5.69;79.20;102996.34;5007501;28;20042;-82
2021/12/20 07:11:08;;;;;;;12.40;1.73;;;;;;;5.69;80.02;102986.81;5012165;28;20046;-82
2021/12/20 07:13:34;;;;;;;11.05;1.40;;;;;;;5.70;80.26;102990.31;5011079;28;20034;-82
2021/12/20 07:15:59;;;;;;;7.72;1.45;;;;;;;5.71;79.95;102992.03;5008332;28;20049;-82
2021/12/20 07:18:25;;;;;;;12.68;2.70;;;;;;;5.70;79.23;102990.31;5003824;28;20033;-82
2021/12/20 07:20:50;;;;;;;11.82;2.00;;;;;;;5.71;79.08;102997.22;5011441;28;20045;-82
2021/12/20 07:23:15;;;;;;;6.80;1.38;;;;;;;5.69;78.49;102988.53;5000353;28;20026;-82
2021/12/20 07:25:41;;;;;;;6.88;1.92;;;;;;;5.70;79.82;102987.69;5008981;28;20022;-82
2021/12/20 07:28:06;;;;;;;9.02;1.85;;;;;;;5.72;81.08;102986.00;4999338;28;20320;-82
2021/12/20 07:30:32;;;;;;;5.00;1.95;;;;;;;5.75;81.94;102983.44;5001225;28;20033;-82
2021/12/20 07:32:57;;;;;;;7.05;1.50;;;;;;;5.78;83.35;102986.06;4996002;28;20026;-82
2021/12/20 07:35:23;;;;;;;6.32;1.45;;;;;;;5.76;81.29;102996.44;5011642;28;20345;-82
2021/12/20 07:37:49;;;;;;;10.20;1.63;;;;;;;5.76;81.32;102993.84;5004017;28;20045;-82
2021/12/20 07:40:15;;;;;;;9.27;1.65;;;;;;;5.75;81.13;102986.91;5038140;28;20340;-82
2021/12/20 07:42:40;;;;;;;7.97;1.40;;;;;;;5.76;82.43;102983.44;5037654;28;20033;-82
2021/12/20 07:45:09;;;;;;;13.18;1.77;;;;;;;5.77;82.79;102992.13;5020829;28;20349;-82
2021/12/20 07:47:34;;;;;;;11.13;1.70;;;;;;;5.79;82.45;102999.97;5010838;28;20120;-82
2021/12/20 07:50:00;;;;;;;11.50;1.85;;;;;;;5.76;81.15;102998.16;5018438;28;20061;-82
2021/12/20 07:52:25;;;;;;;6.75;1.70;;;;;;;5.74;81.49;102998.16;5000297;28;20022;-82
2021/12/20 07:54:50;;;;;;;4.38;1.15;;;;;;;5.77;82.67;103005.13;5011115;28;20038;-82
2021/12/20 07:57:16;;;;;;;12.23;1.52;;;;;;;5.79;84.30;102998.22;5012413;28;20399;-82
2021/12/20 07:59:41;;;;;;;6.28;1.50;;;;;;;5.80;83.95;103001.69;5029974;28;20029;-82
2021/12/20 08:02:07;;;;;;;6.90;1.52;;;;;;;5.81;84.09;103001.72;5023490;28;20343;-82
2021/12/20 08:04:32;;;;;;;9.63;1.17;;;;;;;5.82;84.25;103008.69;5015194;28;20041;-82
2021/12/20 08:06:58;;;;;;;8.98;1.33;;;;;;;5.85;85.46;103003.50;5014567;28;20029;-82
2021/12/20 08:09:23;;;;;;;8.23;1.85;;;;;;;5.86;86.28;103009.59;5017873;28;20056;-82
2021/12/20 08:11:49;;;;;;;7.20;1.83;;;;;;;5.86;86.11;103014.78;5014424;28;20426;-82
2021/12/20 08:14:14;;;;;;;11.25;2.15;;;;;;;5.87;86.83;103013.94;5038848;28;20026;-82
2021/12/20 08:16:40;;;;;;;6.35;1.60;;;;;;;5.86;87.08;103018.25;5022138;28;20030;-82
2021/12/20 08:19:05;;;;;;;9.05;1.45;;;;;;;5.83;86.06;103018.22;5000890;28;20030;-82
2021/12/20 08:21:30;;;;;;;12.80;1.70;;;;;;;5.83;86.19;103013.00;5018362;28;20056;-82
2021/12/20 08:23:56;;;;;;;13.23;1.95;;;;;;;5.82;85.70;103016.47;5016915;28;20038;-82
2021/12/20 08:26:21;;;;;;;9.82;1.77;;;;;;;5.83;86.48;103019.94;4984709;28;20232;-82
2021/12/20 08:28:47;;;;;;;8.40;1.30;;;;;;;5.82;86.71;103012.97;5018347;28;20042;-82
2021/12/20 08:31:12;;;;;;;13.85;2.28;;;;;;;5.81;86.13;103019.06;4998201;28;20042;-82
2021/12/20 08:33:38;;;;;;;7.13;1.30;;;;;;;5.82;86.94;103021.69;5014930;28;20053;-82
2021/12/20 08:36:04;;;;;;;6.10;1.50;;;;;;;5.82;86.64;103026.88;5017378;28;20031;-82
2021/12/20 08:38:30;;;;;;;8.00;1.38;;;;;;;5.81;86.39;103019.91;5006599;28;20054;-82
2021/12/20 08:40:55;;;;;;;6.55;1.83;;;;;;;5.82;86.63;103021.69;5017390;28;20092;-82
2021/12/20 08:43:21;;;;;;;6.85;1.92;;;;;;;5.82;86.28;103019.09;5018019;28;20045;-82
2021/12/20 08:45:47;;;;;;;9.52;1.58;;;;;;;5.79;85.33;103010.34;5001219;28;20037;-82
2021/12/20 08:48:12;;;;;;;12.55;2.00;;;;;;;5.79;85.85;103019.03;5019700;28;20045;-82
2021/12/20 08:50:37;;;;;;;5.55;1.27;;;;;;;5.79;84.77;103024.22;5014390;28;20042;-82
2021/12/20 08:53:03;;;;;;;13.88;2.13;;;;;;;5.81;85.23;103032.91;5013435;28;20042;-82
2021/12/20 08:55:28;;;;;;;10.68;2.17;;;;;;;5.78;83.48;103027.66;5000161;28;20081;-82
2021/12/20 08:57:54;;;;;;;7.32;1.58;;;;;;;5.77;84.08;103037.19;5021983;28;20033;-82
2021/12/20 09:00:24;;;;;;;18.83;2.25;;;;;;;5.75;83.01;103033.72;5018510;28;20052;-82
2021/12/20 09:02:50;;;;;;;8.73;1.65;;;;;;;5.73;83.14;103038.00;5012191;28;20041;-82
2021/12/20 09:05:15;;;;;;;14.00;2.40;;;;;;;5.70;82.27;103037.09;5015067;28;20042;-82
2021/12/20 09:07:41;;;;;;;11.23;2.17;;;;;;;5.69;82.15;103044.00;5008628;28;20034;-82
2021/12/20 09:10:11;;;;;;;12.27;2.20;;;;;;;5.69;82.87;103041.41;5011542;28;20065;-82
2021/12/20 09:12:36;;;;;;;;;;;;;;;5.68;82.75;103038.81;4998794;28;20033;-82
2021/12/20 09:15:01;;;;;;;12.77;2.30;;;;;;;5.67;82.62;103042.25;5016634;28;20023;-81
2021/12/20 09:17:27;;;;;;;11.52;2.38;;;;;;;5.63;82.86;103041.31;5010384;28;20347;-82
2021/12/20 09:19:53;;;;;;;17.63;2.75;;;;;;;5.63;83.06;103046.53;4998560;28;20048;-82
2021/12/20 09:22:19;;;;;;;14.32;2.55;;;;;;;5.63;83.41;103040.47;5026771;28;20265;-82
2021/12/20 09:24:45;;;;;;;13.38;1.98;;;;;;;5.61;82.91;103045.63;5019234;28;20125;-82
2021/12/20 09:27:10;;;;;;;9.82;2.50;;;;;;;5.61;83.61;103044.75;5009677;28;20040;-82
2021/12/20 09:29:36;;;;;;;14.38;1.88;;;;;;;5.60;83.74;103040.41;5027818;28;20038;-82
2021/12/20 09:32:02;;;;;;;13.32;2.30;;;;;;;5.60;83.96;103046.47;5010051;28;20330;-82
2021/12/20 09:34:27;;;;;;;12.70;2.42;;;;;;;5.60;83.93;103045.59;5011459;28;20034;-82
2021/12/20 09:36:54;;;;;;;10.95;2.42;;;;;;;5.61;84.09;103047.34;5000380;28;20104;-82
2021/12/20 09:39:21;;;;;;;21.52;2.45;;;;;;;5.62;84.04;103039.59;5017133;28;20091;-82
2021/12/20 09:44:12;;;;;;;17.67;2.92;;;;;;;5.67;84.48;103043.09;5040344;28;20267;-82
2021/12/20 09:46:38;;;;;;;11.90;2.45;;;;;;;5.69;84.23;103045.72;4999809;28;20044;-82
2021/12/20 09:49:04;;;;;;;11.15;2.75;;;;;;;5.68;83.69;103055.25;5038525;28;20061;-82
2021/12/20 09:51:30;;;;;;;14.65;2.38;;;;;;;5.69;83.84;103053.53;4998369;28;20029;-82
2021/12/20 09:53:55;;;;;;;9.50;2.22;;;;;;;5.69;83.46;103058.72;5008861;28;20046;-82
2021/12/20 09:56:25;;;;;;;25.98;2.83;;;;;;;5.69;83.20;103053.53;4995713;28;20034;-82
2021/12/20 09:58:52;;;;;;;10.63;2.28;;;;;;;5.69;83.27;103058.72;4975493;28;20360;-82
2021/12/20 10:01:18;;;;;;;16.15;2.30;;;;;;;5.68;83.34;103059.59;4996754;28;20053;-82
2021/12/20 10:03:44;;;;;;;14.35;2.17;;;;;;;5.66;83.16;103051.78;4998797;28;20030;-82
2021/12/20 10:06:09;;;;;;;8.85;1.85;;;;;;;5.67;83.76;103052.63;5013532;28;20026;-82
2021/12/20 10:08:41;;;;;;;9.18;2.58;;;;;;;5.67;84.17;103057.84;5016338;28;20283;-82
2021/12/20 10:11:21;;;;;;;12.13;2.30;;;;;;;5.67;83.99;103056.09;5006614;28;20348;-82
2021/12/20 10:13:47;;;;;;;6.85;1.95;;;;;;;5.67;84.19;103050.91;5008817;28;20029;-82
2021/12/20 10:16:17;;;;;;;9.45;1.67;;;;;;;5.69;84.50;103062.19;5007642;28;20163;-81
2021/12/20 10:18:43;;;;;;;12.73;2.13;;;;;;;5.69;84.89;103054.41;5025399;28;20042;-81
2021/12/20 10:21:08;;;;;;;13.57;2.08;;;;;;;5.72;85.02;103057.06;5022861;28;20046;-81
2021/12/20 10:23:40;;;;;;;10.20;1.88;;;;;;;5.73;85.36;103050.13;5021079;28;20075;-81
2021/12/20 10:26:13;;;;;;;8.45;1.65;;;;;;;5.74;85.17;103054.47;5005116;28;20054;-81
2021/12/20 10:28:38;;;;;;;7.68;1.42;;;;;;;5.76;85.04;103057.97;5002700;28;20091;-81
2021/12/20 10:31:09;;;;;;;18.73;1.83;;;;;;;5.76;84.46;103057.97;5011573;28;20318;-82
2021/12/20 10:33:35;;;;;;;11.20;1.80;;;;;;;5.76;84.42;103047.56;5020147;28;20340;-82
2021/12/20 10:36:10;;;;;;;5.82;1.98;;;;;;;5.76;84.39;103058.84;5021351;28;20049;-81
2021/12/20 10:38:38;;;;;;;4.20;1.00;;;;;;;5.76;84.45;103053.63;5015486;28;20060;-82
2021/12/20 10:41:34;;;;;;;6.72;1.85;;;;;;;5.78;84.23;103053.66;5016011;28;20204;-81
2021/12/20 10:44:02;;;;;;;6.97;1.50;;;;;;;5.78;84.13;103061.47;5017247;28;20042;-82
2021/12/20 10:46:28;;;;;;;7.93;1.40;;;;;;;5.79;84.45;103055.44;5017571;28;20037;-81
2021/12/20 10:49:02;;;;;;;5.03;1.20;;;;;;;5.84;84.79;103058.09;5017721;28;20383;-82
2021/12/20 10:51:36;;;;;;;4.40;1.20;;;;;;;5.85;84.90;103065.03;5005525;28;20034;-82
2021/12/20 10:54:07;;;;;;;7.72;1.48;;;;;;;5.85;84.60;103065.91;5005849;28;20094;-81
2021/12/20 10:56:34;;;;;;;8.05;1.70;;;;;;;5.87;84.87;103061.59;5018750;28;20048;-81
2021/12/20 10:59:00;;;;;;;2.97;1.10;;;;;;;5.89;85.09;103062.50;5000711;28;20041;-81
2021/12/20 11:04:00;;;;;;;6.82;1.35;;;;;;;5.92;84.87;103059.09;5016312;28;20347;-83
2021/12/20 11:06:37;;;;;;;6.75;1.00;;;;;;;5.93;84.58;103053.91;5018141;28;20034;-82
2021/12/20 11:09:09;;;;;;;7.40;1.55;;;;;;;5.95;84.17;103048.72;5019360;28;20049;-82
2021/12/20 11:11:41;;;;;;;8.00;1.20;;;;;;;5.98;84.56;103051.38;4987123;28;20061;-82
2021/12/20 11:14:07;;;;;;;8.00;1.50;;;;;;;5.99;84.52;103049.69;5022470;28;20263;-81
2021/12/20 11:16:40;;;;;;;8.65;1.50;;;;;;;5.99;84.19;103049.69;5036992;28;20080;-82
2021/12/20 11:19:20;;;;;;;5.70;1.25;;;;;;;6.00;83.83;103048.81;5000552;28;20049;-82
2021/12/20 11:21:55;;;;;;;8.30;1.13;;;;;;;6.00;84.15;103054.88;4998685;28;21212;-82
2021/12/20 11:24:24;;;;;;;6.57;1.42;;;;;;;6.02;84.83;103042.78;5014399;28;20096;-81
2021/12/20 11:26:50;;;;;;;5.60;1.27;;;;;;;6.04;85.11;103048.88;4998420;28;20034;-81
2021/12/20 11:29:15;;;;;;;6.13;1.20;;;;;;;6.06;85.02;103052.38;5001177;28;20037;-81
2021/12/20 11:31:41;;;;;;;8.63;1.23;;;;;;;6.05;84.12;103044.53;4997259;28;20045;-82
2021/12/20 11:34:06;;;;;;;8.57;1.75;;;;;;;6.06;83.56;103046.31;4986293;28;20034;-82
2021/12/20 11:36:34;;;;;;;5.75;1.20;;;;;;;6.06;82.95;103044.56;5019207;28;20030;-82
2021/12/20 11:39:00;;;;;;;7.03;1.45;;;;;;;6.09;84.31;103042.03;5035398;28;20061;-82
2021/12/20 11:41:26;;;;;;;9.80;1.63;;;;;;;6.11;83.75;103044.63;4985005;28;20033;-81
2021/12/20 11:43:52;;;;;;;10.23;1.58;;;;;;;6.08;82.94;103037.66;5019697;28;20370;-82